Time;durP1;ratioP1;P1;durP2;ratioP2;P2;SDS_P1;SDS_P2;PMS_P1;PMS_P2;Temp;Humidity;BMP_temperature;BMP_pressure;BME280_temperature;BME280_humidity;BME280_pressure;Samples;Min_cycle;Max_cycle;Signal;HPM_P1;HPM_P2
2022/10/15 00:01:09;;;;;;;;;;;;;;;58.39;2.14;100336.13;5130567;27;19964;-61
2022/10/15 00:03:36;;;;;;;;;;;;;;;57.41;2.37;100337.00;5135187;27;19919;-60
2022/10/15 00:06:04;;;;;;;;;;;;;;;58.32;2.24;100331.94;5096146;27;19971;-61
2022/10/15 00:08:30;;;;;;;;;;;;;;;57.37;2.63;100327.88;5041535;27;20393;-61
2022/10/15 00:11:01;;;;;;;;;;;;;;;58.19;2.29;100328.66;5046439;27;19921;-61
2022/10/15 00:13:28;;;;;;;;;;;;;;;57.39;2.73;100325.13;5046121;27;20233;-63
2022/10/15 00:15:54;;;;;;;;;;;;;;;57.21;1.97;100326.56;5052555;27;20441;-60
2022/10/15 00:18:20;;;;;;;;;;;;;;;55.48;3.36;100326.88;5047479;27;19921;-63
2022/10/15 00:20:47;;;;;;;;;;;;;;;54.27;4.12;100339.56;5040831;27;19925;-61
2022/10/15 00:23:13;;;;;;;;;;;;;;;54.40;4.25;100335.69;5045915;27;19921;-60
2022/10/15 00:25:41;;;;;;;;;;;;;;;54.51;4.32;100333.16;5044479;27;19933;-60
2022/10/15 00:28:07;;;;;;;;;;;;;;;54.51;4.06;100336.06;5051213;27;19949;-61
2022/10/15 00:30:33;;;;;;;;;;;;;;;54.28;4.41;100338.19;5056734;27;20020;-62
2022/10/15 00:33:00;;;;;;;;;;;;;;;53.83;4.82;100336.00;5047529;27;19928;-62
2022/10/15 00:35:27;;;;;;;;;;;;;;;54.22;3.78;100332.56;5051740;27;20381;-62
2022/10/15 00:37:53;;;;;;;;;;;;;;;53.18;4.52;100339.06;5046521;27;20382;-62
2022/10/15 00:40:20;;;;;;;;;;;;;;;51.10;5.42;100345.53;5042303;27;19936;-62
2022/10/15 00:42:46;;;;;;;;;;;;;;;52.04;4.84;100338.94;5048904;27;19928;-62
2022/10/15 00:45:13;;;;;;;;;;;;;;;51.40;5.37;100338.59;5050485;27;19999;-62
2022/10/15 00:47:40;;;;;;;;;;;;;;;51.75;5.27;100340.97;5044121;27;19930;-62
2022/10/15 00:50:12;;;;;;;;;;;;;;;51.81;5.20;100340.81;5051032;27;19915;-62
2022/10/15 00:52:56;;;;;;;;;;;;;;;51.03;5.42;100343.31;5047748;27;19973;-61
2022/10/15 00:55:34;;;;;;;;;;;;;;;51.39;5.18;100343.63;5044983;27;19928;-62
2022/10/15 00:58:04;;;;;;;;;;;;;;;50.47;5.86;100344.38;5050126;27;19921;-62
2022/10/15 01:00:30;;;;;;;;;;;;;;;50.46;6.72;100343.59;5052481;27;19924;-62
2022/10/15 01:02:58;;;;;;;;;;;;;;;50.47;6.25;100345.13;5051553;27;20065;-62
2022/10/15 01:05:25;;;;;;;;;;;;;;;50.75;6.37;100338.84;5049565;27;19921;-62
2022/10/15 01:07:51;;;;;;;;;;;;;;;50.94;6.81;100344.50;5050283;27;20009;-62
2022/10/15 01:10:19;;;;;;;;;;;;;;;51.11;6.58;100343.41;5045789;27;19929;-62
2022/10/15 01:12:56;;;;;;;;;;;;;;;51.24;6.84;100354.97;5047524;27;20351;-62
2022/10/15 01:15:28;;;;;;;;;;;;;;;50.73;7.67;100358.09;5039944;27;20003;-62
2022/10/15 01:18:07;;;;;;;;;;;;;;;50.78;7.48;100345.63;5041343;27;19917;-62
2022/10/15 01:20:33;;;;;;;;;;;;;;;50.66;7.96;100352.94;5044874;27;19920;-62
2022/10/15 01:23:25;;;;;;;;;;;;;;;50.44;7.75;100352.00;5046849;27;19921;-62
2022/10/15 01:26:06;;;;;;;;;;;;;;;50.63;8.00;100357.72;5058478;27;19944;-61
2022/10/15 01:28:42;;;;;;;;;;;;;;;50.80;8.23;100366.09;5042685;27;19931;-62
2022/10/15 01:31:11;;;;;;;;;;;;;;;50.57;7.90;100364.94;5044344;27;20297;-62
2022/10/15 01:33:51;;;;;;;;;;;;;;;50.29;8.44;100374.88;5046034;27;19940;-62
2022/10/15 01:36:32;;;;;;;;;;;;;;;50.69;7.76;100372.91;5042953;27;19921;-61
2022/10/15 01:39:04;;;;;;;;;;;;;;;50.61;7.96;100376.97;5045890;27;19977;-61
2022/10/15 01:41:39;;;;;;;;;;;;;;;51.15;7.35;100376.47;5048888;28;19927;-61
2022/10/15 01:44:26;;;;;;;;;;;;;;;50.58;7.75;100380.97;5046969;28;19921;-61
2022/10/15 01:47:28;;;;;;;;;;;;;;;50.24;7.93;100386.53;5047012;28;19921;-61
2022/10/15 01:49:55;;;;;;;;;;;;;;;50.27;7.71;100385.41;5046825;27;20293;-61
2022/10/15 01:52:25;;;;;;;;;;;;;;;49.66;8.87;100385.03;5047920;28;19921;-61
2022/10/15 01:54:53;;;;;;;;;;;;;;;50.18;7.72;100393.19;5049355;28;20270;-61
2022/10/15 01:57:22;;;;;;;;;;;;;;;50.71;7.21;100384.69;5031746;28;19916;-60
2022/10/15 01:59:51;;;;;;;;;;;;;;;50.34;7.95;100393.50;5048186;28;20283;-61
2022/10/15 02:02:17;;;;;;;;;;;;;;;49.85;8.24;100393.69;5049319;28;19913;-61
2022/10/15 02:04:44;;;;;;;;;;;;;;;49.98;8.05;100396.66;5048193;28;20073;-61
2022/10/15 02:07:17;;;;;;;;;;;;;;;49.56;8.24;100401.19;5047965;28;19917;-62
2022/10/15 02:09:49;;;;;;;;;;;;;;;49.81;7.71;100408.47;5049219;28;20255;-61
2022/10/15 02:12:22;;;;;;;;;;;;;;;49.55;7.81;100409.03;5112023;27;21692;-61
2022/10/15 02:15:01;;;;;;;;;;;;;;;48.89;8.23;100404.81;5029489;27;19981;-61
2022/10/15 02:17:33;;;;;;;;;;;;;;;48.75;8.53;100403.13;5043408;27;20405;-61
2022/10/15 02:20:23;;;;;;;;;;;;;;;49.83;8.22;100407.91;5029591;28;19921;-61
2022/10/15 02:22:57;;;;;;;;;;;;;;;48.73;8.64;100413.09;5039797;27;19943;-61
2022/10/15 02:25:25;;;;;;;;;;;;;;;49.01;8.53;100414.91;5051305;28;19921;-61
2022/10/15 02:27:53;;;;;;;;;;;;;;;49.48;8.32;100411.78;5053018;27;19921;-61
2022/10/15 02:30:20;;;;;;;;;;;;;;;49.22;8.86;100421.00;5052409;28;20019;-61
2022/10/15 02:32:50;;;;;;;;;;;;;;;49.04;9.09;100422.53;5052834;27;19920;-61
2022/10/15 02:35:20;;;;;;;;;;;;;;;48.79;9.26;100421.69;5051124;28;19928;-61
2022/10/15 02:37:48;;;;;;;;;;;;;;;49.35;9.11;100426.13;5052184;28;19960;-59
2022/10/15 02:40:18;;;;;;;;;;;;;;;49.22;8.94;100424.69;5050989;28;20294;-59
2022/10/15 02:42:46;;;;;;;;;;;;;;;48.94;9.58;100421.31;5051039;28;20290;-60
2022/10/15 02:45:12;;;;;;;;;;;;;;;48.67;9.50;100426.81;5052315;28;19924;-60
2022/10/15 02:47:40;;;;;;;;;;;;;;;48.17;10.56;100430.03;5052119;28;20019;-60
2022/10/15 02:50:06;;;;;;;;;;;;;;;48.39;10.02;100429.09;5052379;28;19917;-60
2022/10/15 02:52:33;;;;;;;;;;;;;;;48.21;10.72;100436.28;5050910;28;19916;-60
2022/10/15 02:54:59;;;;;;;;;;;;;;;49.01;9.72;100435.13;5052145;28;19924;-60
2022/10/15 02:57:25;;;;;;;;;;;;;;;48.62;10.39;100436.28;5050692;28;20328;-60
2022/10/15 02:59:52;;;;;;;;;;;;;;;49.03;10.45;100425.97;5050658;28;20361;-60
2022/10/15 03:02:19;;;;;;;;;;;;;;;49.18;9.85;100434.94;5050637;28;20027;-60
2022/10/15 03:04:45;;;;;;;;;;;;;;;48.34;10.93;100433.59;5050721;28;20282;-60
2022/10/15 03:07:13;;;;;;;;;;;;;;;48.71;10.67;100433.06;5050681;28;19917;-60
2022/10/15 03:09:40;;;;;;;;;;;;;;;48.76;10.61;100433.53;5052133;28;19932;-60
2022/10/15 03:12:06;;;;;;;;;;;;;;;48.16;10.79;100439.22;5050250;28;19917;-60
2022/10/15 03:14:33;;;;;;;;;;;;;;;48.22;10.91;100443.63;5050647;28;19921;-60
2022/10/15 03:17:00;;;;;;;;;;;;;;;48.72;10.33;100440.38;5051827;28;19985;-60
2022/10/15 03:19:28;;;;;;;;;;;;;;;47.97;11.54;100451.38;5050408;28;20027;-60
2022/10/15 03:21:54;;;;;;;;;;;;;;;47.64;11.78;100448.66;5051813;28;19917;-60
2022/10/15 03:24:20;;;;;;;;;;;;;;;48.03;11.52;100445.59;5051647;28;19921;-60
2022/10/15 03:26:47;;;;;;;;;;;;;;;46.99;12.26;100449.03;5050300;28;20061;-60
2022/10/15 03:29:13;;;;;;;;;;;;;;;48.16;11.89;100445.75;5050426;28;19973;-60
2022/10/15 03:31:49;;;;;;;;;;;;;;;48.16;11.92;100444.97;5049082;28;20016;-60
2022/10/15 03:34:16;;;;;;;;;;;;;;;47.47;12.59;100446.59;5050285;28;20314;-60
2022/10/15 03:36:42;;;;;;;;;;;;;;;47.07;12.72;100452.97;5050182;28;20370;-60
2022/10/15 03:39:11;;;;;;;;;;;;;;;48.05;11.95;100455.25;5051454;28;19990;-60
2022/10/15 03:41:37;;;;;;;;;;;;;;;48.06;12.20;100462.59;5051405;28;20450;-60
2022/10/15 03:44:05;;;;;;;;;;;;;;;48.44;12.14;100460.78;5051422;28;19946;-60
2022/10/15 03:46:33;;;;;;;;;;;;;;;47.72;12.67;100467.72;5050126;28;20016;-60
2022/10/15 03:49:00;;;;;;;;;;;;;;;48.39;12.60;100469.47;5051363;28;19925;-60
2022/10/15 03:51:27;;;;;;;;;;;;;;;46.36;14.47;100461.81;5049859;28;19917;-60
2022/10/15 03:54:00;;;;;;;;;;;;;;;47.60;13.54;100469.09;5050231;28;19929;-60
2022/10/15 03:56:27;;;;;;;;;;;;;;;47.25;13.64;100470.50;5033283;28;20263;-60
2022/10/15 03:59:05;;;;;;;;;;;;;;;48.02;13.41;100472.84;5050026;28;19921;-60
2022/10/15 04:01:32;;;;;;;;;;;;;;;48.25;12.91;100468.53;5049869;28;19928;-60
2022/10/15 04:04:01;;;;;;;;;;;;;;;46.22;14.84;100480.88;5049938;28;19917;-60
2022/10/15 04:06:27;;;;;;;;;;;;;;;47.00;14.01;100476.50;5049913;28;19921;-60
2022/10/15 04:08:53;;;;;;;;;;;;;;;47.13;14.43;100482.50;5049949;28;20252;-60
2022/10/15 04:11:23;;;;;;;;;;;;;;;47.55;14.20;100485.06;5049903;28;19928;-60
2022/10/15 04:13:59;;;;;;;;;;;;;;;47.58;14.11;100488.19;5049550;28;19917;-60
2022/10/15 04:16:26;;;;;;;;;;;;;;;47.99;14.13;100489.09;5049730;28;19956;-60
2022/10/15 04:18:53;;;;;;;;;;;;;;;46.51;15.45;100488.28;5049463;28;20004;-60
2022/10/15 04:21:20;;;;;;;;;;;;;;;47.22;14.73;100485.94;5049662;28;19935;-60
2022/10/15 04:23:52;;;;;;;;;;;;;;;46.17;15.98;100483.75;5049172;28;20024;-60
2022/10/15 04:26:27;;;;;;;;;;;;;;;46.06;16.15;100490.25;5049410;28;20312;-60
2022/10/15 04:28:54;;;;;;;;;;;;;;;46.69;15.92;100492.72;5049410;28;19921;-60
2022/10/15 04:31:22;;;;;;;;;;;;;;;47.42;15.06;100486.94;5049241;28;19917;-60
2022/10/15 04:33:49;;;;;;;;;;;;;;;46.66;16.25;100490.88;5049351;28;19921;-60
2022/10/15 04:36:16;;;;;;;;;;;;;;;46.59;16.34;100500.03;5049470;28;20390;-59
2022/10/15 04:38:57;;;;;;;;;;;;;;;47.49;15.43;100504.44;5049605;28;19920;-60
2022/10/15 04:41:41;;;;;;;;;;;;;;;46.36;16.40;100508.59;5049480;28;19920;-60
2022/10/15 04:44:11;;;;;;;;;;;;;;;46.99;15.90;100512.34;5048831;28;19921;-60
2022/10/15 04:46:38;;;;;;;;;;;;;;;46.96;16.13;100509.22;5049000;28;19928;-60
2022/10/15 04:49:21;;;;;;;;;;;;;;;47.00;16.24;100502.41;5049005;28;20375;-60
2022/10/15 04:51:47;;;;;;;;;;;;;;;47.60;15.39;100505.75;5050309;28;20302;-60
2022/10/15 04:54:19;;;;;;;;;;;;;;;46.82;16.03;100509.47;5049080;28;19956;-60
2022/10/15 04:57:03;;;;;;;;;;;;;;;46.72;16.36;100517.56;5049222;28;20239;-60
2022/10/15 04:59:30;;;;;;;;;;;;;;;46.71;16.61;100510.25;5049176;28;19925;-60
2022/10/15 05:02:14;;;;;;;;;;;;;;;47.32;16.08;100512.34;5050694;28;19961;-60
2022/10/15 05:04:42;;;;;;;;;;;;;;;47.44;16.00;100505.25;5048959;28;19920;-61
2022/10/15 05:07:08;;;;;;;;;;;;;;;47.15;15.83;100508.72;5048968;28;19969;-61
2022/10/15 05:09:35;;;;;;;;;;;;;;;47.37;15.64;100508.66;5048747;28;19921;-61
2022/10/15 05:12:02;;;;;;;;;;;;;;;47.70;15.64;100512.78;5048827;28;19920;-61
2022/10/15 05:14:29;;;;;;;;;;;;;;;47.19;16.41;100514.97;5032454;28;20366;-61
2022/10/15 05:17:06;;;;;;;;;;;;;;;47.25;15.84;100518.66;5048837;28;19939;-61
2022/10/15 05:19:38;;;;;;;;;;;;;;;47.70;15.75;100519.31;5048647;27;19986;-61
2022/10/15 05:22:05;;;;;;;;;;;;;;;46.70;16.90;100520.19;5048857;28;19948;-61
2022/10/15 05:24:33;;;;;;;;;;;;;;;47.19;16.30;100526.50;5048382;28;19927;-61
2022/10/15 05:27:04;;;;;;;;;;;;;;;47.47;15.80;100520.69;5048482;28;19942;-61
2022/10/15 05:29:39;;;;;;;;;;;;;;;47.52;15.98;100531.44;5050088;28;19925;-61
2022/10/15 05:32:06;;;;;;;;;;;;;;;48.06;15.35;100528.09;5049642;28;19932;-61
2022/10/15 05:34:32;;;;;;;;;;;;;;;48.07;15.27;100532.56;5048531;28;20000;-61
2022/10/15 05:37:03;;;;;;;;;;;;;;;47.72;15.38;100528.22;5048552;28;20413;-61
2022/10/15 05:39:31;;;;;;;;;;;;;;;47.24;15.87;100531.47;5048702;28;19921;-61
2022/10/15 05:41:58;;;;;;;;;;;;;;;47.69;15.86;100532.16;5048401;28;19913;-61
2022/10/15 05:44:40;;;;;;;;;;;;;;;46.72;16.55;100540.59;5048541;28;19929;-61
2022/10/15 05:47:10;;;;;;;;;;;;;;;46.55;16.66;100540.56;5048310;28;19921;-60
2022/10/15 05:49:38;;;;;;;;;;;;;;;46.90;16.44;100540.09;5048588;28;19928;-60
2022/10/15 05:52:12;;;;;;;;;;;;;;;47.23;16.18;100532.78;5048429;28;19921;-61
2022/10/15 05:55:01;;;;;;;;;;;;;;;46.97;17.02;100542.44;5039439;28;19924;-61
2022/10/15 05:57:27;;;;;;;;;;;;;;;46.71;17.27;100544.78;5053072;28;19925;-61
2022/10/15 05:59:53;;;;;;;;;;;;;;;45.98;17.80;100543.75;5052849;28;19916;-61
2022/10/15 06:02:20;;;;;;;;;;;;;;;46.37;17.44;100552.53;5052193;28;20037;-60
2022/10/15 06:04:47;;;;;;;;;;;;;;;46.06;18.10;100547.72;5055764;27;19926;-60
2022/10/15 06:07:14;;;;;;;;;;;;;;;45.83;18.58;100540.28;5091912;27;19923;-61
2022/10/15 06:09:40;;;;;;;;;;;;;;;46.26;18.00;100547.50;5090552;27;19929;-61
2022/10/15 06:12:07;;;;;;;;;;;;;;;46.65;17.73;100533.25;5097573;27;19926;-61
2022/10/15 06:14:33;;;;;;;;;;;;;;;46.29;17.62;100537.06;5091791;27;19915;-61
2022/10/15 06:17:00;;;;;;;;;;;;;;;46.86;17.05;100545.34;5136108;27;19923;-61
2022/10/15 06:19:26;;;;;;;;;;;;;;;47.21;16.90;100539.03;5135529;27;19915;-61
2022/10/15 06:21:53;;;;;;;;;;;;;;;46.84;17.60;100533.53;5055839;27;19932;-61
2022/10/15 06:24:19;;;;;;;;;;;;;;;47.35;16.56;100537.19;5039570;27;20012;-62
2022/10/15 06:26:46;;;;;;;;;;;;;;;46.77;17.50;100542.69;5051881;27;19966;-62
2022/10/15 06:29:12;;;;;;;;;;;;;;;47.09;17.22;100543.22;5048300;27;20339;-62
2022/10/15 06:31:38;;;;;;;;;;;;;;;46.90;17.08;100540.09;5049992;27;20332;-63
2022/10/15 06:34:05;;;;;;;;;;;;;;;46.25;18.31;100548.81;5047135;27;20569;-62
2022/10/15 06:36:31;;;;;;;;;;;;;;;47.04;16.98;100541.13;5046156;27;20400;-62
2022/10/15 06:38:58;;;;;;;;;;;;;;;45.88;18.58;100548.13;5048441;27;19921;-62
2022/10/15 06:41:24;;;;;;;;;;;;;;;47.01;17.39;100544.25;5049887;27;20300;-62
2022/10/15 06:43:50;;;;;;;;;;;;;;;46.80;17.74;100541.66;5045478;27;19923;-62
2022/10/15 06:46:16;;;;;;;;;;;;;;;46.22;18.39;100555.59;5039562;28;19928;-60
2022/10/15 06:48:43;;;;;;;;;;;;;;;46.73;17.35;100545.03;5115746;27;19973;-61
2022/10/15 06:51:10;;;;;;;;;;;;;;;46.59;17.63;100551.81;5066823;27;19921;-60
2022/10/15 06:53:39;;;;;;;;;;;;;;;46.85;17.32;100542.97;5041715;28;19924;-60
2022/10/15 06:56:05;;;;;;;;;;;;;;;46.35;18.34;100558.78;5052097;28;19954;-60
2022/10/15 06:58:37;;;;;;;;;;;;;;;46.65;17.70;100549.72;5060700;27;20401;-61
2022/10/15 07:01:04;;;;;;;;;;;;;;;46.82;17.59;100539.03;5129192;27;20365;-60
2022/10/15 07:03:30;;;;;;;;;;;;;;;47.36;17.35;100547.41;5099189;27;19918;-60
2022/10/15 07:06:01;;;;;;;;;;;;;;;46.86;17.71;100544.53;5088972;27;19921;-60
2022/10/15 07:08:27;;;;;;;;;;;;;;;47.00;17.77;100554.22;5138610;27;20338;-60
2022/10/15 07:10:54;;;;;;;;;;;;;;;46.99;17.79;100550.53;5072722;27;19915;-60
2022/10/15 07:13:22;;;;;;;;;;;;;;;46.06;19.02;100553.47;5114920;27;20317;-61
2022/10/15 07:15:52;;;;;;;;;;;;;;;46.21;18.19;100551.16;5095212;27;19968;-60
2022/10/15 07:18:19;;;;;;;;;;;;;;;45.89;19.03;100552.56;5157032;27;20013;-60
2022/10/15 07:20:45;;;;;;;;;;;;;;;46.10;18.72;100556.06;5156449;27;19911;-60
2022/10/15 07:23:11;;;;;;;;;;;;;;;45.97;19.08;100557.31;5156761;27;19919;-61
2022/10/15 07:25:38;;;;;;;;;;;;;;;45.71;19.11;100560.31;5156069;27;19982;-61
2022/10/15 07:28:05;;;;;;;;;;;;;;;45.06;19.73;100560.06;5156904;27;20387;-60
2022/10/15 07:30:31;;;;;;;;;;;;;;;45.74;19.34;100561.38;5156780;27;20002;-61
2022/10/15 07:32:58;;;;;;;;;;;;;;;46.15;18.41;100561.09;5156385;27;19919;-60
2022/10/15 07:35:25;;;;;;;;;;;;;;;45.60;18.97;100563.09;5156035;27;20376;-61
2022/10/15 07:37:51;;;;;;;;;;;;;;;46.09;18.58;100563.91;5156774;27;19915;-61
2022/10/15 07:40:18;;;;;;;;;;;;;;;46.28;18.42;100565.03;5153500;27;19915;-60
2022/10/15 07:42:44;;;;;;;;;;;;;;;46.53;18.45;100569.06;5156431;27;20345;-61
2022/10/15 07:45:11;;;;;;;;;;;;;;;47.04;17.18;100563.34;5156381;27;20304;-60
2022/10/15 07:47:39;;;;;;;;;;;;;;;46.82;17.63;100562.06;5156098;27;19919;-61
2022/10/15 07:50:05;;;;;;;;;;;;;;;46.29;17.93;100565.81;5156181;27;19915;-61
2022/10/15 07:52:31;;;;;;;;;;;;;;;46.49;17.70;100557.00;5089335;27;20363;-61
2022/10/15 07:54:58;;;;;;;;;;;;;;;46.77;17.88;100551.34;5047972;27;19969;-60
2022/10/15 07:57:24;;;;;;;;;;;;;;;46.90;17.15;100566.00;5087566;27;19920;-59
2022/10/15 07:59:53;;;;;;;;;;;;;;;47.05;17.08;100565.75;5089396;27;20004;-60
2022/10/15 08:02:21;;;;;;;;;;;;;;;46.88;17.38;100576.47;5074974;27;20031;-60
2022/10/15 08:04:47;;;;;;;;;;;;;;;46.85;17.49;100578.25;5076200;27;19932;-61
2022/10/15 08:07:13;;;;;;;;;;;;;;;46.32;17.98;100582.00;5094671;27;19958;-59
2022/10/15 08:09:40;;;;;;;;;;;;;;;46.65;17.07;100575.59;5066453;27;19969;-60
2022/10/15 08:12:06;;;;;;;;;;;;;;;46.82;17.29;100579.31;5074472;27;19921;-60
2022/10/15 08:14:33;;;;;;;;;;;;;;;46.87;16.79;100592.16;5095095;27;19976;-60
2022/10/15 08:17:01;;;;;;;;;;;;;;;46.64;16.99;100585.53;5094345;27;19996;-59
2022/10/15 08:19:27;;;;;;;;;;;;;;;46.67;17.30;100587.38;5087540;27;20003;-59
2022/10/15 08:21:54;;;;;;;;;;;;;;;46.89;17.00;100584.56;5094151;27;19976;-59
2022/10/15 08:24:20;;;;;;;;;;;;;;;46.79;16.74;100586.13;5093993;27;19920;-60
2022/10/15 08:26:46;;;;;;;;;;;;;;;46.72;17.03;100586.59;5087835;27;19966;-60
2022/10/15 08:29:12;;;;;;;;;;;;;;;46.77;16.53;100588.72;5094755;27;19922;-59
2022/10/15 08:31:39;;;;;;;;;;;;;;;46.79;16.84;100591.09;5093747;27;19968;-60
2022/10/15 08:34:05;;;;;;;;;;;;;;;46.62;16.63;100593.91;5087737;27;19925;-61
2022/10/15 08:36:31;;;;;;;;;;;;;;;46.59;16.67;100600.69;5096506;27;19919;-60
2022/10/15 08:38:58;;;;;;;;;;;;;;;46.32;17.25;100591.44;5111343;27;19915;-60
2022/10/15 08:41:24;;;;;;;;;;;;;;;46.32;16.85;100597.19;5111275;27;19926;-59
2022/10/15 08:43:51;;;;;;;;;;;;;;;46.10;17.72;100599.97;5070857;27;19964;-60
2022/10/15 08:46:29;;;;;;;;;;;;;;;46.26;17.32;100599.25;5071588;27;19921;-59
2022/10/15 08:48:58;;;;;;;;;;;;;;;46.17;17.29;100598.72;5101732;27;19919;-59
2022/10/15 08:51:27;;;;;;;;;;;;;;;46.26;16.89;100601.34;5111661;27;19973;-59
2022/10/15 08:53:58;;;;;;;;;;;;;;;46.07;17.05;100601.00;5070759;27;19920;-60
2022/10/15 08:56:36;;;;;;;;;;;;;;;45.02;18.43;100605.41;5070999;27;19934;-59
2022/10/15 08:59:22;;;;;;;;;;;;;;;45.58;18.16;100605.09;5092120;27;19934;-60
2022/10/15 09:01:51;;;;;;;;;;;;;;;45.25;18.01;100605.59;5083768;27;20022;-59
2022/10/15 09:04:17;;;;;;;;;;;;;;;45.60;17.35;100606.16;5081895;27;20254;-60
2022/10/15 09:06:45;;;;;;;;;;;;;;;45.59;17.31;100607.47;5092076;27;19966;-60
2022/10/15 09:09:11;;;;;;;;;;;;;;;45.66;17.35;100612.78;5087203;27;19931;-60
2022/10/15 09:11:54;;;;;;;;;;;;;;;45.78;17.61;100602.13;5093462;27;20297;-60
2022/10/15 09:14:26;;;;;;;;;;;;;;;45.99;16.92;100611.41;5082724;28;19964;-60
2022/10/15 09:16:52;;;;;;;;;;;;;;;45.89;16.97;100607.16;5095873;28;19919;-60
2022/10/15 09:19:23;;;;;;;;;;;;;;;45.52;17.76;100618.63;5088771;28;20293;-60
2022/10/15 09:21:50;;;;;;;;;;;;;;;45.47;17.54;100611.56;5087668;28;19920;-60
2022/10/15 09:24:19;;;;;;;;;;;;;;;45.62;17.59;100611.41;5081311;27;19919;-60
2022/10/15 09:27:05;;;;;;;;;;;;;;;45.74;17.18;100616.72;5093044;28;20435;-60
2022/10/15 09:29:31;;;;;;;;;;;;;;;45.84;17.03;100608.69;5084135;27;19921;-59
2022/10/15 09:32:16;;;;;;;;;;;;;;;45.49;17.48;100614.72;5097704;27;19958;-59
2022/10/15 09:34:42;;;;;;;;;;;;;;;45.08;17.49;100620.63;5086535;27;20377;-60
2022/10/15 09:37:15;;;;;;;;;;;;;;;45.44;17.38;100615.47;5098692;27;19970;-60
2022/10/15 09:39:48;;;;;;;;;;;;;;;45.45;17.59;100614.16;5086875;27;19920;-59
2022/10/15 09:42:14;;;;;;;;;;;;;;;45.31;17.62;100617.97;5099360;27;19919;-60
2022/10/15 09:44:42;;;;;;;;;;;;;;;45.55;17.11;100623.34;5071779;27;19921;-60
2022/10/15 09:47:34;;;;;;;;;;;;;;;45.44;17.55;100612.59;5048752;27;19928;-59
2022/10/15 09:50:05;;;;;;;;;;;;;;;45.38;17.56;100614.63;5084970;27;19930;-59
2022/10/15 09:52:59;;;;;;;;;;;;;;;45.69;16.80;100617.50;5098923;27;19927;-60
2022/10/15 09:55:28;;;;;;;;;;;;;;;45.63;16.91;100619.53;5062908;27;19965;-59
2022/10/15 09:57:57;;;;;;;;;;;;;;;45.63;16.66;100613.81;5089720;27;19916;-59
2022/10/15 10:00:24;;;;;;;;;;;;;;;45.60;16.98;100614.78;5094400;27;19923;-60
2022/10/15 10:03:05;;;;;;;;;;;;;;;45.36;16.98;100611.47;5097674;27;20021;-60
2022/10/15 10:05:34;;;;;;;;;;;;;;;45.13;17.50;100610.47;5121262;27;19919;-60
2022/10/15 10:08:08;;;;;;;;;;;;;;;45.40;17.27;100612.81;5135688;27;19915;-59
2022/10/15 10:10:35;;;;;;;;;;;;;;;45.36;17.07;100605.72;5135245;27;20364;-59
2022/10/15 10:13:01;;;;;;;;;;;;;;;45.35;17.18;100607.03;5135151;27;19920;-59
2022/10/15 10:15:33;;;;;;;;;;;;;;;45.48;16.51;100604.53;5135290;27;20457;-59
2022/10/15 10:18:00;;;;;;;;;;;;;;;45.09;17.33;100613.59;5134946;27;19920;-59
2022/10/15 10:20:27;;;;;;;;;;;;;;;45.20;17.28;100613.66;5134606;27;19972;-59
2022/10/15 10:22:55;;;;;;;;;;;;;;;45.26;16.55;100605.16;5135097;27;19927;-59
2022/10/15 10:25:30;;;;;;;;;;;;;;;45.08;17.30;100614.09;5134233;27;20018;-59
2022/10/15 10:27:56;;;;;;;;;;;;;;;45.33;16.92;100615.38;5133915;28;19919;-60
2022/10/15 10:30:24;;;;;;;;;;;;;;;45.31;16.53;100615.09;5135383;28;19922;-60
2022/10/15 10:32:59;;;;;;;;;;;;;;;45.28;16.46;100605.44;5135739;28;19919;-59
2022/10/15 10:35:28;;;;;;;;;;;;;;;45.14;17.06;100612.84;5135836;28;19925;-59
2022/10/15 10:37:54;;;;;;;;;;;;;;;44.88;16.86;100617.78;5135884;27;19912;-59
2022/10/15 10:40:33;;;;;;;;;;;;;;;44.89;17.00;100614.44;5135741;27;19946;-60
2022/10/15 10:43:16;;;;;;;;;;;;;;;45.01;17.08;100611.66;5135639;27;19968;-59
2022/10/15 10:45:56;;;;;;;;;;;;;;;45.26;16.82;100618.72;5135662;27;19972;-60
2022/10/15 10:48:25;;;;;;;;;;;;;;;44.94;16.75;100615.78;5135468;28;19915;-59
2022/10/15 10:51:01;;;;;;;;;;;;;;;44.96;17.28;100618.16;5135545;27;19919;-60
2022/10/15 10:53:27;;;;;;;;;;;;;;;45.02;16.80;100622.63;5135426;27;19965;-59
2022/10/15 10:55:54;;;;;;;;;;;;;;;44.94;16.76;100627.25;5135376;27;19922;-59
2022/10/15 10:58:26;;;;;;;;;;;;;;;45.12;16.83;100624.03;5135433;28;19915;-59
2022/10/15 11:00:54;;;;;;;;;;;;;;;45.09;16.84;100622.19;5135457;28;19994;-60
2022/10/15 11:03:31;;;;;;;;;;;;;;;44.99;16.72;100625.72;5135275;27;19911;-59
2022/10/15 11:06:08;;;;;;;;;;;;;;;44.89;16.52;100625.91;5135348;27;19919;-59
2022/10/15 11:08:57;;;;;;;;;;;;;;;44.87;16.63;100633.44;5135629;27;19915;-59
2022/10/15 11:11:36;;;;;;;;;;;;;;;45.05;16.90;100627.34;5135283;27;20001;-60
2022/10/15 11:14:22;;;;;;;;;;;;;;;45.12;16.79;100638.38;5135299;28;19919;-59
2022/10/15 11:16:59;;;;;;;;;;;;;;;44.86;16.88;100629.75;5127919;28;19923;-60
2022/10/15 11:19:34;;;;;;;;;;;;;;;45.02;16.25;100636.97;5135263;28;19919;-59
2022/10/15 11:22:15;;;;;;;;;;;;;;;44.87;16.35;100633.44;5135206;27;19920;-59
2022/10/15 11:24:58;;;;;;;;;;;;;;;45.02;16.12;100647.66;5082071;27;1466627;-59
2022/10/15 11:27:43;;;;;;;;;;;;;;;44.49;17.10;100643.94;5135887;27;19923;-59
2022/10/15 11:30:19;;;;;;;;;;;;;;;44.23;17.10;100652.44;5136182;27;20288;-60
2022/10/15 11:32:54;;;;;;;;;;;;;;;44.76;16.67;100650.50;5135941;27;19919;-60
2022/10/15 11:35:35;;;;;;;;;;;;;;;44.94;16.22;100649.44;5136088;27;19919;-60
2022/10/15 11:38:16;;;;;;;;;;;;;;;44.30;17.23;100654.09;5136094;27;20037;-60
2022/10/15 11:40:42;;;;;;;;;;;;;;;44.34;17.30;100648.13;5135947;27;19926;-60
2022/10/15 11:43:08;;;;;;;;;;;;;;;44.32;17.15;100645.78;5135830;27;20353;-60
2022/10/15 11:45:53;;;;;;;;;;;;;;;44.62;16.48;100657.13;5135798;27;20007;-60
2022/10/15 11:48:28;;;;;;;;;;;;;;;44.74;16.36;100653.09;5135914;27;19923;-60
2022/10/15 11:51:18;;;;;;;;;;;;;;;44.71;16.33;100662.69;5135723;27;19920;-60
2022/10/15 11:53:44;;;;;;;;;;;;;;;44.47;16.75;100666.56;5129408;27;19919;-60
2022/10/15 11:56:18;;;;;;;;;;;;;;;44.54;16.94;100662.50;5135565;27;19915;-60
2022/10/15 11:58:49;;;;;;;;;;;;;;;44.75;16.27;100663.28;5135680;27;19920;-59
2022/10/15 12:01:25;;;;;;;;;;;;;;;44.79;16.61;100660.97;5135485;27;19919;-60
2022/10/15 12:03:54;;;;;;;;;;;;;;;44.36;17.31;100666.44;5135675;27;20506;-60
2022/10/15 12:06:22;;;;;;;;;;;;;;;44.63;16.33;100679.56;5135310;27;20344;-60
2022/10/15 12:08:48;;;;;;;;;;;;;;;44.46;17.21;100679.31;5135798;27;20373;-60
2022/10/15 12:11:14;;;;;;;;;;;;;;;44.78;16.40;100679.47;5135380;27;19916;-60
2022/10/15 12:13:41;;;;;;;;;;;;;;;44.71;16.89;100683.56;5135136;27;20425;-60
2022/10/15 12:16:10;;;;;;;;;;;;;;;44.70;16.51;100686.91;5135255;27;19922;-60
2022/10/15 12:19:01;;;;;;;;;;;;;;;44.72;16.41;100692.97;5135010;27;19955;-61
2022/10/15 12:21:42;;;;;;;;;;;;;;;44.78;16.41;100688.84;5134240;27;19943;-60
2022/10/15 12:24:35;;;;;;;;;;;;;;;44.64;16.53;100688.94;5134933;27;19920;-60
2022/10/15 12:27:19;;;;;;;;;;;;;;;44.57;16.82;100696.69;5118682;27;19919;-60
2022/10/15 12:29:50;;;;;;;;;;;;;;;44.49;16.67;100704.13;5135059;27;20017;-59
2022/10/15 12:32:21;;;;;;;;;;;;;;;44.33;17.07;100704.66;5135029;27;19919;-60
2022/10/15 12:34:53;;;;;;;;;;;;;;;44.06;17.29;100696.44;5134816;27;20288;-60
2022/10/15 12:37:21;;;;;;;;;;;;;;;44.33;17.06;100710.41;5135183;27;19926;-59
2022/10/15 12:39:53;;;;;;;;;;;;;;;44.36;17.09;100714.38;5134852;27;19967;-60
2022/10/15 12:42:33;;;;;;;;;;;;;;;43.76;17.81;100719.41;5134879;27;19954;-59
2022/10/15 12:45:01;;;;;;;;;;;;;;;44.11;17.27;100719.47;5134793;27;19920;-60
2022/10/15 12:48:00;;;;;;;;;;;;;;;44.40;17.29;100715.72;5134658;27;20010;-59
2022/10/15 12:50:28;;;;;;;;;;;;;;;43.76;17.82;100715.75;5111175;27;19984;-60
2022/10/15 12:53:03;;;;;;;;;;;;;;;44.14;17.56;100727.06;5134681;27;20015;-60
2022/10/15 12:55:30;;;;;;;;;;;;;;;44.09;17.23;100719.19;5134631;27;19919;-60